createdAt,value
2022-08-17T00:04:45.892Z,4.8
2022-08-17T00:10:16.780Z,9.6
2022-08-17T00:15:55.192Z,3.6
2022-08-17T00:21:23.688Z,0
2022-08-17T00:26:57.020Z,3.6
2022-08-17T00:33:10.600Z,0
2022-08-17T00:38:14.850Z,0
2022-08-17T00:43:51.714Z,0
2022-08-17T00:49:12.143Z,0
2022-08-17T00:55:07.490Z,4.8
2022-08-17T01:00:48.549Z,4.8
2022-08-17T01:06:07.110Z,7.2
2022-08-17T01:11:43.270Z,4.8
2022-08-17T01:17:14.641Z,0
2022-08-17T01:23:03.490Z,0
2022-08-17T01:28:53.296Z,0
2022-08-17T01:34:15.172Z,5.9
2022-08-17T01:39:31.443Z,9.6
2022-08-17T01:45:20.676Z,7.2
2022-08-17T01:51:10.690Z,7.2
2022-08-17T01:56:23.709Z,4.8
2022-08-17T02:02:01.856Z,0
2022-08-17T02:07:58.654Z,2.4
2022-08-17T02:13:29.626Z,8.4
2022-08-17T02:18:52.310Z,7.2
2022-08-17T02:24:28.142Z,3.6
2022-08-17T02:30:49.933Z,0
2022-08-17T02:35:41.050Z,0
2022-08-17T02:41:05.632Z,0
2022-08-17T02:46:40.836Z,0
2022-08-17T02:52:43.588Z,0
2022-08-17T02:58:09.924Z,0
2022-08-17T03:03:46.005Z,0
2022-08-17T03:09:22.044Z,0
2022-08-17T03:14:55.619Z,0
2022-08-17T03:20:40.355Z,0
2022-08-17T03:25:46.607Z,0
2022-08-17T03:31:27.509Z,0
2022-08-17T03:37:07.694Z,3.6
2022-08-17T03:42:50.536Z,0
2022-08-17T03:48:30.741Z,0
2022-08-17T03:53:49.210Z,0
2022-08-17T03:59:28.845Z,0
2022-08-17T04:05:07.303Z,0
2022-08-17T04:10:41.324Z,5.9
2022-08-17T04:16:19.157Z,11.9
2022-08-17T04:21:57.143Z,10.7
2022-08-17T04:27:27.931Z,7.2
2022-08-17T04:33:05.684Z,4.8
2022-08-17T04:38:30.367Z,3.6
2022-08-17T04:44:04.760Z,0
2022-08-17T04:49:48.193Z,0
2022-08-17T04:55:21.313Z,0
2022-08-17T05:01:03.989Z,0
2022-08-17T05:06:40.352Z,3.6
2022-08-17T05:12:20.308Z,0
2022-08-17T05:18:02.630Z,3.6
2022-08-17T05:23:13.694Z,0
2022-08-17T05:29:07.089Z,0
2022-08-17T05:34:20.315Z,0
2022-08-17T05:40:09.281Z,0
2022-08-17T05:45:55.014Z,0
2022-08-17T05:51:14.906Z,0
2022-08-17T05:56:57.551Z,0
2022-08-17T06:02:27.653Z,0
2022-08-17T06:08:09.408Z,0
2022-08-17T06:13:27.475Z,3.6
2022-08-17T06:19:14.023Z,8.4
2022-08-17T06:24:54.447Z,7.2
2022-08-17T06:30:17.771Z,8.4
2022-08-17T06:35:53.599Z,4.8
2022-08-17T06:41:50.562Z,3.6
2022-08-17T06:47:10.878Z,5.9
2022-08-17T06:52:51.956Z,7.2
2022-08-17T06:58:41.593Z,5.9
2022-08-17T07:04:24.481Z,3.6
2022-08-17T07:09:35.156Z,3.6
2022-08-17T07:15:38.566Z,3.6
2022-08-17T07:21:04.461Z,0
2022-08-17T07:26:44.587Z,0
2022-08-17T07:32:26.478Z,3.6
2022-08-17T07:37:42.777Z,2.4
2022-08-17T07:43:26.983Z,0
2022-08-17T07:48:54.140Z,0
2022-08-17T07:54:53.935Z,2.4
2022-08-17T08:00:06.610Z,0
2022-08-17T08:06:03.883Z,5.9
2022-08-17T08:11:24.279Z,5.9
2022-08-17T08:17:24.962Z,11.9
2022-08-17T08:22:37.333Z,4.8
2022-08-17T08:28:24.067Z,0
2022-08-17T08:33:55.972Z,3.6
2022-08-17T08:39:38.091Z,4.8
2022-08-17T08:45:30.093Z,3.6
2022-08-17T08:50:47.918Z,2.4
2022-08-17T08:56:34.096Z,7.2
2022-08-17T09:02:11.787Z,4.8
2022-08-17T09:07:57.329Z,4.8
2022-08-17T09:13:27.818Z,0
2022-08-17T09:19:01.930Z,4.8
2022-08-17T09:24:53.955Z,7.2
2022-08-17T09:30:11.395Z,4.8
2022-08-17T09:36:03.984Z,7.2
2022-08-17T09:41:48.485Z,5.9
2022-08-17T09:47:15.534Z,3.6
2022-08-17T09:52:57.403Z,4.8
2022-08-17T09:58:29.051Z,0
2022-08-17T10:03:58.512Z,3.6
2022-08-17T10:09:48.182Z,2.4
2022-08-17T10:15:31.986Z,2.4
2022-08-17T10:21:08.591Z,0
2022-08-17T10:26:55.789Z,3.6
2022-08-17T10:32:08.435Z,5.9
2022-08-17T10:37:49.628Z,5.9
2022-08-17T10:43:57.864Z,4.8
2022-08-17T10:49:27.403Z,4.8
2022-08-17T10:55:06.653Z,8.4
2022-08-17T11:00:35.625Z,3.6
2022-08-17T11:06:20.227Z,4.8
2022-08-17T11:11:43.408Z,5.9
2022-08-17T11:17:38.056Z,8.4
2022-08-17T11:23:22.840Z,7.2
2022-08-17T11:28:55.393Z,8.4
2022-08-17T11:34:35.666Z,7.2
2022-08-17T11:40:16.286Z,4.8
2022-08-17T11:45:45.556Z,13.2
2022-08-17T11:51:39.721Z,13.2
2022-08-17T11:57:22.065Z,7.2
2022-08-17T12:02:48.727Z,4.8
2022-08-17T12:08:23.933Z,10.7
2022-08-17T12:14:17.014Z,9.6
2022-08-17T12:19:52.050Z,9.6
2022-08-17T12:25:34.227Z,7.2
2022-08-17T12:31:11.752Z,11.9
2022-08-17T12:36:39.631Z,9.6
2022-08-17T12:42:15.688Z,11.9
2022-08-17T12:47:58.494Z,8.4
2022-08-17T12:53:37.271Z,8.4
2022-08-17T12:59:17.556Z,13.2
2022-08-17T13:05:03.587Z,9.6
2022-08-17T13:10:33.470Z,7.2
2022-08-17T13:16:15.479Z,11.9
2022-08-17T13:21:55.893Z,7.2
2022-08-17T13:27:44.097Z,9.6
2022-08-17T13:33:06.589Z,8.4
2022-08-17T13:38:49.473Z,8.4
2022-08-17T13:44:36.791Z,4.8
2022-08-17T13:50:21.354Z,10.7
2022-08-17T13:55:58.680Z,9.6
2022-08-17T14:01:28.169Z,11.9
2022-08-17T14:07:25.569Z,8.4
2022-08-17T14:12:59.206Z,9.6
2022-08-17T14:18:31.253Z,19.2
2022-08-17T14:23:56.506Z,28.8
2022-08-17T14:29:55.149Z,26.4
2022-08-17T14:35:23.339Z,26.4
2022-08-17T14:41:09.424Z,26.4
2022-08-17T14:46:36.093Z,22.8
2022-08-17T14:52:27.211Z,21.5
2022-08-17T14:58:09.394Z,19.2
2022-08-17T15:03:29.146Z,22.8
2022-08-17T15:09:26.124Z,20.4
2022-08-17T15:14:42.313Z,22.8
2022-08-17T15:20:21.983Z,21.5
2022-08-17T15:26:03.385Z,15.6
2022-08-17T15:31:32.083Z,21.5
2022-08-17T15:37:16.938Z,26.4
2022-08-17T15:42:56.679Z,22.8
2022-08-17T15:48:32.606Z,14.4
2022-08-17T15:54:24.701Z,14.4
2022-08-17T15:59:36.333Z,19.2
2022-08-17T16:05:21.531Z,22.8
2022-08-17T16:11:08.966Z,26.4
2022-08-17T16:16:53.637Z,22.8
2022-08-17T16:22:12.899Z,22.8
2022-08-17T16:27:52.904Z,27.6
2022-08-17T16:33:21.642Z,36
2022-08-17T16:39:17.917Z,31.2
2022-08-17T16:44:29.233Z,25.1
2022-08-17T16:50:33.285Z,26.4
2022-08-17T16:55:48.411Z,20.4
2022-08-17T17:01:43.042Z,19.2
2022-08-17T17:07:19.799Z,18
2022-08-17T17:13:01.846Z,14.4
2022-08-17T17:18:15.721Z,11.9
2022-08-17T17:23:43.891Z,18
2022-08-17T17:29:46.593Z,21.5
2022-08-17T17:35:14.520Z,28.8
2022-08-17T17:40:53.712Z,26.4
2022-08-17T17:46:07.675Z,26.4
2022-08-17T17:52:07.533Z,19.2
2022-08-17T17:57:40.022Z,13.2
2022-08-17T18:03:18.768Z,11.9
2022-08-17T18:08:43.985Z,11.9
2022-08-17T18:14:32.899Z,8.4
2022-08-17T18:19:50.745Z,10.7
2022-08-17T18:25:18.240Z,13.2
2022-08-17T18:31:21.630Z,15.6
2022-08-17T18:36:35.065Z,8.4
2022-08-17T18:42:21.559Z,5.9
2022-08-17T18:48:01.761Z,7.2
2022-08-17T18:53:26.437Z,8.4
2022-08-17T18:58:52.310Z,8.4
2022-08-17T19:04:38.296Z,10.7
2022-08-17T19:10:06.714Z,10.7
2022-08-17T19:16:05.247Z,9.6
2022-08-17T19:21:30.480Z,7.2
2022-08-17T19:27:01.823Z,7.2
2022-08-17T19:32:26.670Z,4.8
2022-08-17T19:38:00.772Z,3.6
2022-08-17T19:43:54.037Z,5.9
2022-08-17T19:49:33.147Z,5.9
2022-08-17T20:00:50.885Z,7.2
2022-08-17T20:06:13.682Z,2.4
2022-08-17T20:11:37.181Z,0
2022-08-17T20:17:28.685Z,0
2022-08-17T20:23:06.914Z,0
2022-08-17T20:28:43.646Z,0
2022-08-17T20:33:59.088Z,0
2022-08-17T20:39:40.368Z,0
2022-08-17T20:45:20.335Z,0
2022-08-17T20:50:50.627Z,0
2022-08-17T20:56:34.497Z,0
2022-08-17T21:01:58.272Z,0
2022-08-17T21:07:35.425Z,5.9
2022-08-17T21:12:58.266Z,3.6
2022-08-17T21:18:52.242Z,0
2022-08-17T21:24:08.744Z,0
2022-08-17T21:30:04.004Z,0
2022-08-17T21:35:38.754Z,0
2022-08-17T21:40:54.736Z,0
2022-08-17T21:46:31.184Z,0
2022-08-17T21:52:11.956Z,0
2022-08-17T21:58:13.568Z,0
2022-08-17T22:03:33.930Z,0
2022-08-17T22:08:55.446Z,0
2022-08-17T22:14:51.391Z,0
2022-08-17T22:20:01.588Z,0
2022-08-17T22:25:56.630Z,0
2022-08-17T22:31:27.089Z,0
2022-08-17T22:37:01.815Z,0
2022-08-17T22:42:39.195Z,0
2022-08-17T22:48:01.074Z,0
2022-08-17T22:53:54.681Z,3.6
2022-08-17T22:59:08.631Z,0
2022-08-17T23:05:00.265Z,0
2022-08-17T23:10:22.854Z,0
2022-08-17T23:15:56.909Z,0
2022-08-17T23:21:41.149Z,0
2022-08-17T23:27:10.214Z,0
2022-08-17T23:32:57.388Z,0
2022-08-17T23:38:24.274Z,0
2022-08-17T23:43:40.188Z,3.6
2022-08-17T23:49:19.112Z,0
2022-08-17T23:55:18.050Z,0
